createdAt,value
2019-06-08T00:01:44.631Z,99.90
2019-06-08T00:04:12.855Z,99.90
2019-06-08T00:06:39.247Z,99.90
2019-06-08T00:09:05.805Z,99.90
2019-06-08T00:11:32.157Z,99.90
2019-06-08T00:13:58.526Z,99.90
2019-06-08T00:16:24.986Z,99.90
2019-06-08T00:18:51.376Z,99.90
2019-06-08T00:21:17.774Z,99.90
2019-06-08T00:23:44.126Z,99.90
2019-06-08T00:26:10.623Z,99.90
2019-06-08T00:28:36.945Z,99.90
2019-06-08T00:31:03.455Z,99.90
2019-06-08T00:33:29.826Z,99.90
2019-06-08T00:35:56.250Z,99.90
2019-06-08T00:38:23.024Z,99.90
2019-06-08T00:40:49.534Z,99.90
2019-06-08T00:43:17.061Z,99.90
2019-06-08T00:45:43.768Z,99.90
2019-06-08T00:48:10.136Z,99.90
2019-06-08T00:50:36.607Z,99.90
2019-06-08T00:53:03.165Z,99.90
2019-06-08T00:55:29.952Z,99.90
2019-06-08T00:57:56.404Z,99.90
2019-06-08T01:00:22.733Z,99.90
2019-06-08T01:02:49.276Z,99.90
2019-06-08T01:05:15.830Z,99.90
2019-06-08T01:07:42.780Z,99.90
2019-06-08T01:10:09.963Z,99.90
2019-06-08T01:12:36.314Z,99.90
2019-06-08T01:15:05.477Z,99.90
2019-06-08T01:17:31.908Z,99.90
2019-06-08T01:19:58.301Z,99.90
2019-06-08T01:22:25.761Z,99.90
2019-06-08T01:24:52.171Z,99.90
2019-06-08T01:27:19.923Z,99.90
2019-06-08T01:29:46.451Z,99.90
2019-06-08T01:32:12.870Z,99.90
2019-06-08T01:34:39.218Z,99.90
2019-06-08T01:37:05.582Z,99.90
2019-06-08T01:39:32.389Z,99.90
2019-06-08T01:41:59.005Z,99.90
2019-06-08T01:44:25.675Z,99.90
2019-06-08T01:46:52.164Z,99.90
2019-06-08T01:49:18.545Z,99.90
2019-06-08T01:51:45.046Z,99.90
2019-06-08T01:54:11.448Z,99.90
2019-06-08T01:56:37.838Z,99.90
2019-06-08T01:59:04.250Z,99.90
2019-06-08T02:01:31.892Z,99.90
2019-06-08T02:03:58.416Z,99.90
2019-06-08T02:06:26.093Z,99.90
2019-06-08T02:08:52.687Z,99.90
2019-06-08T02:11:19.145Z,99.90
2019-06-08T02:13:45.612Z,99.90
2019-06-08T02:16:12.233Z,99.90
2019-06-08T02:18:48.974Z,99.90
2019-06-08T02:21:06.925Z,99.90
2019-06-08T02:23:33.607Z,99.90
2019-06-08T02:25:59.971Z,99.90
2019-06-08T02:28:27.434Z,99.90
2019-06-08T02:30:53.855Z,99.90
2019-06-08T02:33:20.382Z,99.90
2019-06-08T02:35:46.728Z,99.90
2019-06-08T02:38:13.155Z,99.90
2019-06-08T02:40:40.729Z,99.90
2019-06-08T02:43:07.119Z,99.90
2019-06-08T02:45:34.706Z,99.90
2019-06-08T02:48:02.117Z,99.90
2019-06-08T02:50:55.350Z,99.90
2019-06-08T02:53:23.458Z,99.90
2019-06-08T02:55:49.918Z,99.90
2019-06-08T02:58:17.236Z,99.90
2019-06-08T03:00:45.141Z,99.90
2019-06-08T03:03:12.087Z,99.90
2019-06-08T03:05:40.499Z,99.90
2019-06-08T03:08:08.174Z,99.90
2019-06-08T03:10:37.108Z,99.90
2019-06-08T03:13:04.067Z,99.90
2019-06-08T03:15:32.400Z,99.90
2019-06-08T03:17:58.647Z,99.90
2019-06-08T03:20:25.048Z,99.90
2019-06-08T03:22:51.362Z,99.90
2019-06-08T03:25:17.750Z,99.90
2019-06-08T03:27:44.074Z,99.90
2019-06-08T03:30:17.500Z,99.90
2019-06-08T03:32:47.037Z,99.90
2019-06-08T03:35:07.280Z,99.90
2019-06-08T03:37:33.628Z,99.90
2019-06-08T03:39:59.954Z,99.90
2019-06-08T03:42:26.369Z,99.90
2019-06-08T03:44:52.732Z,99.90
2019-06-08T03:47:19.112Z,99.90
2019-06-08T03:49:54.885Z,99.90
2019-06-08T03:52:13.652Z,99.90
2019-06-08T03:54:41.078Z,99.90
2019-06-08T03:57:08.314Z,99.90
2019-06-08T03:59:36.030Z,99.90
2019-06-08T04:02:02.681Z,99.90
2019-06-08T04:04:29.037Z,99.90
2019-06-08T04:06:55.431Z,99.90
2019-06-08T04:09:21.751Z,99.90
2019-06-08T04:11:48.131Z,99.90
2019-06-08T04:14:14.460Z,99.90
2019-06-08T04:16:42.869Z,99.90
2019-06-08T04:19:09.045Z,99.90
2019-06-08T04:21:35.397Z,99.90
2019-06-08T04:24:01.766Z,99.90
2019-06-08T04:26:29.200Z,99.90
2019-06-08T04:28:55.558Z,99.90
2019-06-08T04:31:21.906Z,99.90
2019-06-08T04:33:48.330Z,99.90
2019-06-08T04:36:14.643Z,99.90
2019-06-08T04:38:41.378Z,99.90
2019-06-08T04:41:08.183Z,99.90
2019-06-08T04:43:35.542Z,99.90
2019-06-08T04:46:01.889Z,99.90
2019-06-08T04:48:28.285Z,99.90
2019-06-08T04:50:54.623Z,99.90
2019-06-08T04:53:20.994Z,99.90
2019-06-08T04:55:49.179Z,99.90
2019-06-08T04:58:15.590Z,99.90
2019-06-08T05:00:43.943Z,99.90
2019-06-08T05:03:10.109Z,99.90
2019-06-08T05:05:36.493Z,99.90
2019-06-08T05:08:02.921Z,99.90
2019-06-08T05:10:29.345Z,99.90
2019-06-08T05:12:55.671Z,99.90
2019-06-08T05:15:22.099Z,99.90
2019-06-08T05:17:49.686Z,99.90
2019-06-08T05:20:16.306Z,99.90
2019-06-08T05:22:43.621Z,99.90
2019-06-08T05:25:11.085Z,99.90
2019-06-08T05:27:37.449Z,99.90
2019-06-08T05:30:08.705Z,99.90
2019-06-08T05:32:33.523Z,99.90
2019-06-08T05:34:59.961Z,99.90
2019-06-08T05:37:26.368Z,99.90
2019-06-08T05:39:52.778Z,99.90
2019-06-08T05:42:19.119Z,99.90
2019-06-08T05:44:45.727Z,99.90
2019-06-08T05:47:12.080Z,99.90
2019-06-08T05:49:39.660Z,99.90
2019-06-08T05:52:06.252Z,99.90
2019-06-08T05:54:32.715Z,99.90
2019-06-08T05:56:59.111Z,99.90
2019-06-08T05:59:25.547Z,99.90
2019-06-08T06:01:51.918Z,99.90
2019-06-08T06:04:18.330Z,99.90
2019-06-08T06:06:44.783Z,99.90
2019-06-08T06:09:11.221Z,99.90
2019-06-08T06:11:37.558Z,99.90
2019-06-08T06:14:04.219Z,99.90
2019-06-08T06:16:30.539Z,99.90
2019-06-08T06:18:56.943Z,99.90
2019-06-08T06:21:23.282Z,99.90
2019-06-08T06:23:49.690Z,99.90
2019-06-08T06:26:16.088Z,99.90
2019-06-08T06:28:43.321Z,99.90
2019-06-08T06:31:09.804Z,99.90
2019-06-08T06:33:36.148Z,99.90
2019-06-08T06:36:02.793Z,99.90
2019-06-08T06:38:29.226Z,99.90
2019-06-08T06:40:55.879Z,99.90
2019-06-08T06:43:22.317Z,99.90
2019-06-08T06:45:49.802Z,99.90
2019-06-08T06:48:16.454Z,99.90
2019-06-08T06:50:44.299Z,99.90
2019-06-08T06:53:10.708Z,99.90
2019-06-08T06:55:37.774Z,99.90
2019-06-08T06:58:04.255Z,99.90
2019-06-08T07:00:31.622Z,99.90
2019-06-08T07:02:59.357Z,99.90
2019-06-08T07:05:25.753Z,99.90
2019-06-08T07:07:52.439Z,99.90
2019-06-08T07:10:18.850Z,99.90
2019-06-08T07:12:46.497Z,99.90
2019-06-08T07:15:16.779Z,99.90
2019-06-08T07:17:43.145Z,99.90
2019-06-08T07:20:09.519Z,99.90
2019-06-08T07:22:35.937Z,99.90
2019-06-08T07:25:02.671Z,99.90
2019-06-08T07:27:29.203Z,99.90
2019-06-08T07:29:55.569Z,99.90
2019-06-08T07:32:21.943Z,99.90
2019-06-08T07:34:49.953Z,99.90
2019-06-08T07:37:16.547Z,99.90
2019-06-08T07:39:51.561Z,99.90
2019-06-08T07:42:18.304Z,99.90
2019-06-08T07:44:44.638Z,99.90
2019-06-08T07:47:11.061Z,99.90
2019-06-08T07:49:37.481Z,99.90
2019-06-08T07:52:10.314Z,99.90
2019-06-08T07:54:32.123Z,99.90
2019-06-08T07:56:59.158Z,99.90
2019-06-08T07:59:25.657Z,96.90
2019-06-08T08:01:52.016Z,91.80
2019-06-08T08:04:18.495Z,83.70
2019-06-08T08:06:44.861Z,84.80
2019-06-08T08:09:11.225Z,77.50
2019-06-08T08:11:37.598Z,77.70
2019-06-08T08:14:04.369Z,78.00
2019-06-08T08:16:30.877Z,75.50
2019-06-08T08:18:57.664Z,72.80
2019-06-08T08:21:26.419Z,69.00
2019-06-08T08:23:53.212Z,72.00
2019-06-08T08:26:19.830Z,68.10
2019-06-08T08:28:50.017Z,69.60
2019-06-08T08:31:15.354Z,72.10
2019-06-08T08:33:41.899Z,72.20
2019-06-08T08:36:08.337Z,73.00
2019-06-08T08:38:34.730Z,74.40
2019-06-08T08:41:07.133Z,77.40
2019-06-08T08:43:29.344Z,83.30
2019-06-08T08:45:56.741Z,79.30
2019-06-08T08:48:28.131Z,75.30
2019-06-08T08:50:52.420Z,78.10
2019-06-08T08:53:18.914Z,76.40
2019-06-08T08:55:45.525Z,75.30
2019-06-08T08:58:13.740Z,75.00
2019-06-08T09:00:41.283Z,75.60
2019-06-08T09:03:22.097Z,74.60
2019-06-08T09:05:38.049Z,70.30
2019-06-08T09:08:04.282Z,72.80
2019-06-08T09:10:30.799Z,72.60
2019-06-08T09:13:01.670Z,76.90
2019-06-08T09:15:25.465Z,76.90
2019-06-08T09:17:52.654Z,75.10
2019-06-08T09:20:20.134Z,74.50
2019-06-08T09:22:53.740Z,75.50
2019-06-08T09:25:14.975Z,79.40
2019-06-08T09:27:41.422Z,84.20
2019-06-08T09:30:08.431Z,87.10
2019-06-08T09:32:35.157Z,89.80
2019-06-08T09:35:04.645Z,91.30
2019-06-08T09:37:29.853Z,92.30
2019-06-08T09:39:58.517Z,92.20
2019-06-08T09:42:24.500Z,81.80
2019-06-08T09:44:53.752Z,79.20
2019-06-08T09:47:20.277Z,74.90
2019-06-08T09:49:48.066Z,72.60
2019-06-08T09:52:18.153Z,68.80
2019-06-08T09:54:43.949Z,67.20
2019-06-08T09:57:10.468Z,62.20
2019-06-08T09:59:38.736Z,58.70
2019-06-08T10:02:08.998Z,61.10
2019-06-08T10:04:33.452Z,60.50
2019-06-08T10:07:00.668Z,59.50
2019-06-08T10:09:28.478Z,60.90
2019-06-08T10:11:56.225Z,57.40
2019-06-08T10:14:23.441Z,60.20
2019-06-08T10:16:49.865Z,55.30
2019-06-08T10:19:18.479Z,55.10
2019-06-08T10:21:44.447Z,56.90
2019-06-08T10:24:12.035Z,52.90
2019-06-08T10:26:38.512Z,52.90
2019-06-08T10:29:06.259Z,54.40
2019-06-08T10:31:38.786Z,55.30
2019-06-08T10:34:03.430Z,58.20
2019-06-08T10:36:29.715Z,59.80
2019-06-08T10:38:59.396Z,59.20
2019-06-08T10:41:24.406Z,61.20
2019-06-08T10:43:50.779Z,59.70
2019-06-08T10:46:20.702Z,62.10
2019-06-08T10:48:45.492Z,67.10
2019-06-08T10:51:13.074Z,70.60
2019-06-08T10:53:49.057Z,74.40
2019-06-08T10:56:10.371Z,71.70
2019-06-08T10:58:37.555Z,70.20
2019-06-08T11:01:06.004Z,65.40
2019-06-08T11:03:32.242Z,65.20
2019-06-08T11:06:00.748Z,70.80
2019-06-08T11:08:27.603Z,76.90
2019-06-08T11:10:57.498Z,80.20
2019-06-08T11:13:23.478Z,84.60
2019-06-08T11:15:49.925Z,83.20
2019-06-08T11:18:18.425Z,82.70
2019-06-08T11:20:44.665Z,86.80
2019-06-08T11:23:12.626Z,90.60
2019-06-08T11:25:39.208Z,91.30
2019-06-08T11:28:11.817Z,91.60
2019-06-08T11:30:33.949Z,90.60
2019-06-08T11:33:01.997Z,87.60
2019-06-08T11:35:28.713Z,85.50
2019-06-08T11:37:55.217Z,82.30
2019-06-08T11:40:21.664Z,80.80
2019-06-08T11:42:48.501Z,79.00
2019-06-08T11:45:17.651Z,74.60
2019-06-08T11:47:43.793Z,74.90
2019-06-08T11:50:13.128Z,73.60
2019-06-08T11:52:38.777Z,74.50
2019-06-08T11:55:07.491Z,75.40
2019-06-08T11:57:37.328Z,72.00
2019-06-08T12:00:16.728Z,71.00
2019-06-08T12:02:35.610Z,68.50
2019-06-08T12:05:06.411Z,63.50
2019-06-08T12:07:33.801Z,64.50
2019-06-08T12:10:00.199Z,66.80
2019-06-08T12:12:28.257Z,68.90
2019-06-08T12:14:54.839Z,69.90
2019-06-08T12:17:22.642Z,67.50
2019-06-08T12:19:49.255Z,66.30
2019-06-08T12:22:17.799Z,67.30
2019-06-08T12:24:43.884Z,65.80
2019-06-08T12:27:24.654Z,65.40
2019-06-08T12:29:38.477Z,65.90
2019-06-08T12:32:04.878Z,66.80
2019-06-08T12:34:31.333Z,67.00
2019-06-08T12:36:58.282Z,65.10
2019-06-08T12:39:24.761Z,65.80
2019-06-08T12:41:51.229Z,67.00
2019-06-08T12:44:21.708Z,68.80
2019-06-08T12:46:48.356Z,67.10
2019-06-08T12:49:14.363Z,67.90
2019-06-08T12:51:41.925Z,68.50
2019-06-08T12:54:09.948Z,70.80
2019-06-08T12:56:37.772Z,74.50
2019-06-08T12:59:04.276Z,75.80
2019-06-08T13:01:30.844Z,77.50
2019-06-08T13:03:58.151Z,79.90
2019-06-08T13:06:24.817Z,78.60
2019-06-08T13:08:51.274Z,75.40
2019-06-08T13:11:19.034Z,74.20
2019-06-08T13:13:46.043Z,71.40
2019-06-08T13:16:12.587Z,74.90
2019-06-08T13:18:40.772Z,77.80
2019-06-08T13:21:16.779Z,72.70
2019-06-08T13:23:40.841Z,71.10
2019-06-08T13:26:03.689Z,67.20
2019-06-08T13:28:30.110Z,65.10
2019-06-08T13:30:58.105Z,62.40
2019-06-08T13:33:24.740Z,61.70
2019-06-08T13:35:51.098Z,60.60
2019-06-08T13:38:20.472Z,62.60
2019-06-08T13:40:48.452Z,62.00
2019-06-08T13:43:18.549Z,61.00
2019-06-08T13:45:44.171Z,60.10
2019-06-08T13:48:11.695Z,59.90
2019-06-08T13:50:38.441Z,58.00
2019-06-08T13:53:04.865Z,58.50
2019-06-08T13:55:48.031Z,57.90
2019-06-08T13:57:59.497Z,58.70
2019-06-08T14:00:33.644Z,57.50
2019-06-08T14:03:00.817Z,58.70
2019-06-08T14:05:30.705Z,56.30
2019-06-08T14:07:58.973Z,56.40
2019-06-08T14:10:39.226Z,53.00
2019-06-08T14:13:05.963Z,55.60
2019-06-08T14:15:32.364Z,55.60
2019-06-08T14:17:59.867Z,55.70
2019-06-08T14:20:32.534Z,56.10
2019-06-08T14:22:54.605Z,57.30
2019-06-08T14:25:23.272Z,58.10
2019-06-08T14:27:50.333Z,58.40
2019-06-08T14:30:18.280Z,59.60
2019-06-08T14:32:44.977Z,56.60
2019-06-08T14:35:11.359Z,55.30
2019-06-08T14:37:38.225Z,55.00
2019-06-08T14:40:08.123Z,55.50
2019-06-08T14:42:34.377Z,58.00
2019-06-08T14:45:00.719Z,56.70
2019-06-08T14:47:27.759Z,56.00
2019-06-08T14:49:55.277Z,56.60
2019-06-08T14:52:22.697Z,57.60
2019-06-08T14:54:51.234Z,57.80
2019-06-08T14:57:19.278Z,58.40
2019-06-08T14:59:50.106Z,59.90
2019-06-08T15:02:14.193Z,60.00
2019-06-08T15:04:40.572Z,59.10
2019-06-08T15:07:09.450Z,60.00
2019-06-08T15:09:37.426Z,61.70
2019-06-08T15:12:03.710Z,61.10
2019-06-08T15:14:35.084Z,61.70
2019-06-08T15:16:59.034Z,60.50
2019-06-08T15:19:27.020Z,61.60
2019-06-08T15:21:53.811Z,62.50
2019-06-08T15:24:20.654Z,62.80
2019-06-08T15:26:48.837Z,63.20
2019-06-08T15:29:15.315Z,62.50
2019-06-08T15:31:41.696Z,64.20
2019-06-08T15:34:10.463Z,66.40
2019-06-08T15:36:38.231Z,67.00
2019-06-08T15:39:07.782Z,66.20
2019-06-08T15:41:34.379Z,66.70
2019-06-08T15:44:00.733Z,65.80
2019-06-08T15:46:28.230Z,68.50
2019-06-08T15:48:55.008Z,67.20
2019-06-08T15:51:22.100Z,67.60
2019-06-08T15:53:48.740Z,66.80
2019-06-08T15:56:15.174Z,68.80
2019-06-08T15:58:41.560Z,69.00
2019-06-08T16:01:08.241Z,67.50
2019-06-08T16:03:37.718Z,68.10
2019-06-08T16:06:04.124Z,70.40
2019-06-08T16:08:32.300Z,69.80
2019-06-08T16:10:58.784Z,70.60
2019-06-08T16:13:26.701Z,69.00
2019-06-08T16:15:53.209Z,72.10
2019-06-08T16:18:19.636Z,70.90
2019-06-08T16:20:45.993Z,70.90
2019-06-08T16:23:12.381Z,72.50
2019-06-08T16:25:39.089Z,72.30
2019-06-08T16:28:05.696Z,71.50
2019-06-08T16:30:33.138Z,72.20
2019-06-08T16:32:59.546Z,71.90
2019-06-08T16:35:27.912Z,72.00
2019-06-08T16:37:54.092Z,72.20
2019-06-08T16:40:20.539Z,71.40
2019-06-08T16:42:46.967Z,71.50
2019-06-08T16:45:13.452Z,71.90
2019-06-08T16:47:43.217Z,71.90
2019-06-08T16:50:22.946Z,72.00
2019-06-08T16:52:36.755Z,72.10
2019-06-08T16:55:05.131Z,72.40
2019-06-08T16:57:34.695Z,72.50
2019-06-08T16:59:59.726Z,73.20
2019-06-08T17:02:26.097Z,72.60
2019-06-08T17:04:52.554Z,73.50
2019-06-08T17:07:18.889Z,74.50
2019-06-08T17:09:45.416Z,74.10
2019-06-08T17:12:11.798Z,73.00
2019-06-08T17:14:38.372Z,73.50
2019-06-08T17:17:05.162Z,73.40
2019-06-08T17:19:32.031Z,72.90
2019-06-08T17:21:58.609Z,74.00
2019-06-08T17:24:24.959Z,75.10
2019-06-08T17:26:51.345Z,76.40
2019-06-08T17:29:17.802Z,76.10
2019-06-08T17:31:45.373Z,74.70
2019-06-08T17:34:11.893Z,74.00
2019-06-08T17:36:38.598Z,75.60
2019-06-08T17:39:05.464Z,76.50
2019-06-08T17:41:32.343Z,75.70
2019-06-08T17:43:58.700Z,75.40
2019-06-08T17:46:25.091Z,75.50
2019-06-08T17:48:51.449Z,76.40
2019-06-08T17:51:17.844Z,77.80
2019-06-08T17:53:44.232Z,77.00
2019-06-08T17:56:10.640Z,77.70
2019-06-08T17:58:37.277Z,79.10
2019-06-08T18:01:04.043Z,80.10
2019-06-08T18:03:30.485Z,80.10
2019-06-08T18:05:58.108Z,79.70
2019-06-08T18:08:25.975Z,80.60
2019-06-08T18:10:53.196Z,82.10
2019-06-08T18:13:19.759Z,82.80
2019-06-08T18:15:48.199Z,84.30
2019-06-08T18:18:14.482Z,84.90
2019-06-08T18:20:42.449Z,85.50
2019-06-08T18:23:09.948Z,87.00
2019-06-08T18:25:38.800Z,87.70
2019-06-08T18:28:10.174Z,79.30
2019-06-08T18:30:33.075Z,76.00
2019-06-08T18:32:59.433Z,74.20
2019-06-08T18:35:27.746Z,69.80
2019-06-08T18:37:54.257Z,69.20
2019-06-08T18:40:20.789Z,68.00
2019-06-08T18:42:48.698Z,67.40
2019-06-08T18:45:18.177Z,66.70
2019-06-08T18:47:45.479Z,65.70
2019-06-08T18:50:13.132Z,65.40
2019-06-08T18:52:43.394Z,65.60
2019-06-08T18:55:10.480Z,64.80
2019-06-08T18:57:38.463Z,65.50
2019-06-08T19:00:09.216Z,66.00
2019-06-08T19:02:35.156Z,67.10
2019-06-08T19:05:01.486Z,67.40
2019-06-08T19:07:28.767Z,67.20
2019-06-08T19:09:58.132Z,67.70
2019-06-08T19:12:27.657Z,67.20
2019-06-08T19:14:53.763Z,67.40
2019-06-08T19:17:20.183Z,67.60
2019-06-08T19:19:51.649Z,68.20
2019-06-08T19:22:15.554Z,70.30
2019-06-08T19:24:43.636Z,69.50
2019-06-08T19:27:10.129Z,68.30
2019-06-08T19:29:39.411Z,69.40
2019-06-08T19:32:07.299Z,70.00
2019-06-08T19:34:33.696Z,70.60
2019-06-08T19:37:00.153Z,70.40
2019-06-08T19:39:28.286Z,72.10
2019-06-08T19:41:54.715Z,72.70
2019-06-08T19:44:21.126Z,73.40
2019-06-08T19:46:51.136Z,74.70
2019-06-08T19:49:17.278Z,77.30
2019-06-08T19:51:45.020Z,77.90
2019-06-08T19:54:12.032Z,75.60
2019-06-08T19:56:40.053Z,79.60
2019-06-08T19:59:08.446Z,79.90
2019-06-08T20:01:34.874Z,78.70
2019-06-08T20:04:01.640Z,79.90
2019-06-08T20:06:28.246Z,83.90
2019-06-08T20:08:57.310Z,83.50
2019-06-08T20:11:22.840Z,84.40
2019-06-08T20:13:50.415Z,88.20
2019-06-08T20:16:17.494Z,89.90
2019-06-08T20:18:43.836Z,91.80
2019-06-08T20:21:10.415Z,94.10
2019-06-08T20:23:38.253Z,95.40
2019-06-08T20:26:05.157Z,95.00
2019-06-08T20:28:32.908Z,97.00
2019-06-08T20:30:59.348Z,99.90
2019-06-08T20:33:27.218Z,99.90
2019-06-08T20:35:53.994Z,99.90
2019-06-08T20:38:34.005Z,99.90
2019-06-08T20:40:50.164Z,99.90
2019-06-08T20:43:17.674Z,99.90
2019-06-08T20:45:44.295Z,99.90
2019-06-08T20:48:10.817Z,99.90
2019-06-08T20:50:37.788Z,99.90
2019-06-08T20:53:04.428Z,99.90
2019-06-08T20:55:30.855Z,99.90
2019-06-08T20:57:57.746Z,99.90
2019-06-08T21:00:24.847Z,99.90
2019-06-08T21:02:51.956Z,99.90
2019-06-08T21:05:19.666Z,99.90
2019-06-08T21:07:49.219Z,99.90
2019-06-08T21:10:17.322Z,99.90
2019-06-08T21:12:45.145Z,99.90
2019-06-08T21:15:11.378Z,99.90
2019-06-08T21:17:38.430Z,99.90
2019-06-08T21:20:08.275Z,99.90
2019-06-08T21:22:34.362Z,99.90
2019-06-08T21:25:01.155Z,99.90
2019-06-08T21:27:29.231Z,99.90
2019-06-08T21:30:02.144Z,99.90
2019-06-08T21:32:24.036Z,99.90
2019-06-08T21:34:52.173Z,99.90
2019-06-08T21:37:18.802Z,99.90
2019-06-08T21:39:52.709Z,99.90
2019-06-08T21:42:14.764Z,99.90
2019-06-08T21:44:41.395Z,99.90
2019-06-08T21:47:08.043Z,99.90
2019-06-08T21:49:34.575Z,99.90
2019-06-08T21:52:01.960Z,99.90
2019-06-08T21:54:29.497Z,99.90
2019-06-08T21:56:58.956Z,99.90
2019-06-08T21:59:24.246Z,99.90
2019-06-08T22:01:53.039Z,99.90
2019-06-08T22:04:19.103Z,99.90
2019-06-08T22:06:48.019Z,99.90
2019-06-08T22:09:14.649Z,99.90
2019-06-08T22:11:41.379Z,99.90
2019-06-08T22:14:07.822Z,99.90
2019-06-08T22:16:34.506Z,99.90
2019-06-08T22:19:01.026Z,99.90
2019-06-08T22:21:28.031Z,99.90
2019-06-08T22:23:55.860Z,99.90
2019-06-08T22:26:22.683Z,99.90
2019-06-08T22:28:49.022Z,99.90
2019-06-08T22:31:17.089Z,99.90
2019-06-08T22:33:43.518Z,99.90
2019-06-08T22:36:09.997Z,99.90
2019-06-08T22:38:37.298Z,99.90
2019-06-08T22:41:03.866Z,99.90
2019-06-08T22:43:30.209Z,99.90
2019-06-08T22:45:58.910Z,99.90
2019-06-08T22:48:24.744Z,99.90
2019-06-08T22:50:53.299Z,99.90
2019-06-08T22:53:19.310Z,99.90
2019-06-08T22:55:47.616Z,99.90
2019-06-08T22:58:14.524Z,99.90
2019-06-08T23:00:52.259Z,99.90
2019-06-08T23:03:09.191Z,99.90
2019-06-08T23:05:35.766Z,99.90
2019-06-08T23:08:04.626Z,99.90
2019-06-08T23:10:30.400Z,99.90
2019-06-08T23:12:59.026Z,99.90
2019-06-08T23:15:25.087Z,99.90
2019-06-08T23:17:51.446Z,99.90
2019-06-08T23:20:18.572Z,99.90
2019-06-08T23:22:47.369Z,99.90
2019-06-08T23:25:13.373Z,99.90
2019-06-08T23:27:39.785Z,99.90
2019-06-08T23:30:10.177Z,99.90
2019-06-08T23:32:38.366Z,99.90
2019-06-08T23:35:07.444Z,99.90
2019-06-08T23:37:33.397Z,99.90
2019-06-08T23:40:00.895Z,99.90
2019-06-08T23:42:27.914Z,99.90
2019-06-08T23:44:54.264Z,99.90
2019-06-08T23:47:20.658Z,99.90
2019-06-08T23:49:47.383Z,99.90
2019-06-08T23:52:14.909Z,99.90
2019-06-08T23:54:41.263Z,99.90
2019-06-08T23:57:09.662Z,99.90
2019-06-08T23:59:37.086Z,99.90
